Time;durP1;ratioP1;P1;durP2;ratioP2;P2;SDS_P1;SDS_P2;PMS_P1;PMS_P2;Temp;Humidity;BMP_temperature;BMP_pressure;BME280_temperature;BME280_humidity;BME280_pressure;Samples;Min_cycle;Max_cycle;Signal;HPM_P1;HPM_P2
2023/12/04 00:00:47;;;;;;;27.30;12.30;;;-0.10;99.90;;;;;;4918474;29;20051;-80
2023/12/04 00:03:14;;;;;;;26.40;11.82;;;-0.10;99.90;;;;;;4927430;29;20564;-80
2023/12/04 00:05:44;;;;;;;24.35;10.95;;;-0.10;99.90;;;;;;4911081;29;20092;-80
2023/12/04 00:08:11;;;;;;;26.60;11.88;;;-0.10;99.90;;;;;;4923573;29;20136;-81
2023/12/04 00:10:37;;;;;;;24.38;11.30;;;0.80;99.90;;;;;;4904170;29;20120;-80
2023/12/04 00:13:04;;;;;;;24.55;10.88;;;0.00;99.90;;;;;;4923726;29;20040;-80
2023/12/04 00:15:31;;;;;;;26.90;11.57;;;-0.20;99.90;;;;;;4928801;29;20514;-80
2023/12/04 00:17:57;;;;;;;24.27;10.90;;;-0.10;99.90;;;;;;4918600;29;20492;-80
2023/12/04 00:20:24;;;;;;;24.25;10.57;;;-0.20;99.90;;;;;;4923709;29;20047;-80
2023/12/04 00:22:51;;;;;;;27.08;12.13;;;-0.20;99.90;;;;;;4919369;29;20053;-81
2023/12/04 00:25:17;;;;;;;24.55;11.27;;;-0.10;99.90;;;;;;4898964;29;20037;-80
2023/12/04 00:27:44;;;;;;;24.65;10.05;;;0.50;99.90;;;;;;4919758;29;20103;-80
2023/12/04 00:30:11;;;;;;;26.52;11.55;;;-0.20;99.90;;;;;;4930646;29;20049;-80
2023/12/04 00:32:37;;;;;;;23.35;11.35;;;-0.20;99.90;;;;;;4935032;29;20040;-80
2023/12/04 00:35:04;;;;;;;24.17;11.32;;;-0.20;99.90;;;;;;4928313;29;20048;-80
2023/12/04 00:37:31;;;;;;;25.63;11.57;;;-0.20;99.90;;;;;;4919705;29;20111;-80
2023/12/04 00:39:58;;;;;;;26.55;11.57;;;-0.20;99.90;;;;;;4930284;29;20041;-80
2023/12/04 00:42:24;;;;;;;24.63;11.00;;;-0.20;99.90;;;;;;4917520;29;20044;-80
2023/12/04 00:44:51;;;;;;;23.75;10.57;;;-0.20;99.90;;;;;;4929582;29;20128;-80
2023/12/04 00:47:17;;;;;;;25.23;11.93;;;-0.20;99.90;;;;;;4930086;29;20044;-80
2023/12/04 00:49:44;;;;;;;24.70;11.23;;;-0.20;99.90;;;;;;4930217;29;20076;-80
2023/12/04 00:52:11;;;;;;;23.75;11.02;;;0.90;99.90;;;;;;4911988;29;20048;-80
2023/12/04 00:54:40;;;;;;;23.83;11.15;;;-0.20;99.90;;;;;;4930640;29;20051;-80
2023/12/04 00:57:08;;;;;;;26.58;10.90;;;-0.20;99.90;;;;;;4941544;29;20051;-80
2023/12/04 00:59:35;;;;;;;23.92;10.52;;;-0.20;99.90;;;;;;4914716;29;20052;-81
2023/12/04 01:02:01;;;;;;;24.63;10.90;;;-0.20;99.90;;;;;;4914838;29;20043;-80
2023/12/04 01:04:28;;;;;;;26.10;11.70;;;-0.20;99.90;;;;;;4954566;29;20072;-80
2023/12/04 01:06:55;;;;;;;24.02;11.02;;;-0.20;99.90;;;;;;4914133;29;20097;-80
2023/12/04 01:09:24;;;;;;;29.70;12.00;;;-0.20;99.90;;;;;;4929873;29;20045;-80
2023/12/04 01:11:54;;;;;;;27.83;11.45;;;-0.20;99.90;;;;;;4907542;29;20565;-80
2023/12/04 01:14:21;;;;;;;23.27;11.48;;;-0.20;99.90;;;;;;4926735;29;20462;-80
2023/12/04 01:16:48;;;;;;;25.88;12.18;;;-0.20;99.90;;;;;;4914048;29;20498;-80
2023/12/04 01:19:14;;;;;;;29.83;11.55;;;-0.20;99.90;;;;;;4921181;29;20049;-80
2023/12/04 01:21:42;;;;;;;23.25;10.88;;;-0.20;99.90;;;;;;4921011;29;20049;-80
2023/12/04 01:24:09;;;;;;;24.58;11.93;;;-0.20;99.90;;;;;;4926652;29;20045;-80
2023/12/04 01:26:35;;;;;;;25.58;11.68;;;-0.20;99.90;;;;;;4919019;29;20516;-80
2023/12/04 01:29:02;;;;;;;24.23;11.70;;;0.70;99.90;;;;;;4916226;29;20077;-80
2023/12/04 01:31:28;;;;;;;24.50;10.48;;;-0.30;99.90;;;;;;4920043;29;20033;-80
2023/12/04 01:33:55;;;;;;;24.90;11.65;;;-0.30;99.90;;;;;;4914445;29;20083;-80
2023/12/04 01:36:22;;;;;;;27.50;11.90;;;-0.30;99.90;;;;;;4916600;29;20106;-80
2023/12/04 01:38:48;;;;;;;23.20;11.20;;;-0.30;99.90;;;;;;4931369;29;20050;-80
2023/12/04 01:41:15;;;;;;;25.33;12.13;;;0.40;99.90;;;;;;4903232;29;20076;-80
2023/12/04 01:43:41;;;;;;;25.98;11.82;;;-0.30;99.90;;;;;;4905571;29;20138;-80
2023/12/04 01:46:09;;;;;;;24.88;11.18;;;-0.30;99.90;;;;;;4932223;29;20128;-80
2023/12/04 01:48:36;;;;;;;26.20;11.85;;;-0.30;99.90;;;;;;4909788;29;20072;-80
2023/12/04 01:51:07;;;;;;;29.52;12.00;;;0.30;99.90;;;;;;4905982;29;20095;-80
2023/12/04 01:53:36;;;;;;;25.58;11.82;;;-0.30;99.90;;;;;;4914954;29;20055;-80
2023/12/04 01:56:03;;;;;;;26.15;11.50;;;-0.30;99.90;;;;;;4916943;29;20044;-80
2023/12/04 01:58:29;;;;;;;26.90;11.57;;;-0.30;99.90;;;;;;4912019;29;20395;-80
2023/12/04 02:00:56;;;;;;;25.50;12.15;;;-0.30;99.90;;;;;;4918547;29;20059;-80
2023/12/04 02:03:23;;;;;;;24.30;10.93;;;-0.30;99.90;;;;;;4929026;29;20063;-80
2023/12/04 02:05:51;;;;;;;26.33;11.40;;;-0.30;99.90;;;;;;4919005;29;20124;-80
2023/12/04 02:08:18;;;;;;;28.02;12.07;;;-0.30;99.90;;;;;;4943502;29;20057;-81
2023/12/04 02:10:45;;;;;;;29.05;12.00;;;-0.30;99.90;;;;;;4932985;29;20125;-80
2023/12/04 02:13:12;;;;;;;27.23;11.77;;;-0.30;99.90;;;;;;4917453;29;20099;-80
2023/12/04 02:15:38;;;;;;;27.63;12.15;;;-0.30;99.90;;;;;;4915060;29;20033;-80
2023/12/04 02:18:05;;;;;;;24.35;11.13;;;-0.20;99.90;;;;;;4920084;29;20068;-80
2023/12/04 02:20:35;;;;;;;35.03;12.10;;;-0.20;99.90;;;;;;4928969;29;20089;-80
2023/12/04 02:23:02;;;;;;;25.67;11.98;;;-0.30;99.90;;;;;;4937002;29;20091;-80
2023/12/04 02:25:32;;;;;;;27.02;11.90;;;-0.20;99.90;;;;;;4917286;29;20048;-80
2023/12/04 02:28:02;;;;;;;27.85;11.23;;;-0.20;99.90;;;;;;4932506;29;20051;-80
2023/12/04 02:30:31;;;;;;;29.15;12.32;;;-0.20;99.90;;;;;;4944990;29;20493;-80
2023/12/04 02:32:59;;;;;;;27.73;12.65;;;-0.20;99.90;;;;;;4916455;29;20453;-80
2023/12/04 02:35:31;;;;;;;26.40;11.38;;;-0.20;99.90;;;;;;4922102;29;20120;-80
2023/12/04 02:37:58;;;;;;;26.88;12.15;;;-0.20;99.90;;;;;;4917249;29;20127;-80
2023/12/04 02:40:25;;;;;;;27.60;11.60;;;-0.20;99.90;;;;;;4909494;29;20049;-80
2023/12/04 02:42:52;;;;;;;25.13;11.18;;;-0.20;99.90;;;;;;4912242;29;20068;-80
2023/12/04 02:45:19;;;;;;;25.40;11.38;;;-0.20;99.90;;;;;;4920096;29;20510;-80
2023/12/04 02:47:45;;;;;;;29.02;11.98;;;-0.20;99.90;;;;;;4921064;29;20044;-80
2023/12/04 02:50:12;;;;;;;27.05;11.30;;;-0.30;99.90;;;;;;4944402;29;20626;-80
2023/12/04 02:52:39;;;;;;;25.33;11.13;;;0.40;99.90;;;;;;4931697;29;20414;-80
2023/12/04 02:55:06;;;;;;;26.95;11.43;;;0.70;99.90;;;;;;4917410;29;20052;-80
2023/12/04 02:57:32;;;;;;;28.98;12.27;;;-0.20;99.90;;;;;;4908521;29;20386;-80
2023/12/04 02:59:59;;;;;;;27.27;11.68;;;-0.20;99.90;;;;;;4916556;29;20045;-80
2023/12/04 03:02:25;;;;;;;28.20;11.70;;;-0.20;99.90;;;;;;4919194;29;20040;-80
2023/12/04 03:04:52;;;;;;;26.02;10.98;;;-0.20;99.90;;;;;;4920640;29;20597;-80
2023/12/04 03:07:20;;;;;;;24.95;11.38;;;-0.20;99.90;;;;;;4908079;29;20039;-80
2023/12/04 03:09:47;;;;;;;28.70;12.27;;;-0.20;99.90;;;;;;4940951;29;20101;-80
2023/12/04 03:12:13;;;;;;;25.77;12.15;;;-0.20;99.90;;;;;;4928735;29;20040;-80
2023/12/04 03:14:40;;;;;;;27.73;11.75;;;0.00;99.90;;;;;;4922276;29;20104;-80
2023/12/04 03:17:07;;;;;;;28.27;12.07;;;-0.20;99.90;;;;;;4938733;29;20135;-80
2023/12/04 03:19:33;;;;;;;27.67;12.05;;;-0.20;99.90;;;;;;4934990;29;20132;-80
2023/12/04 03:22:01;;;;;;;26.23;11.85;;;-0.20;99.90;;;;;;4920367;29;20040;-80
2023/12/04 03:24:28;;;;;;;26.45;11.13;;;-0.20;99.90;;;;;;4925695;29;20097;-80
2023/12/04 03:26:54;;;;;;;24.83;11.25;;;-0.20;99.90;;;;;;4915287;29;20497;-80
2023/12/04 03:29:21;;;;;;;28.80;12.48;;;-0.10;99.90;;;;;;4935030;29;20090;-80
2023/12/04 03:31:47;;;;;;;28.95;11.95;;;-0.20;99.90;;;;;;4942218;29;20055;-80
2023/12/04 03:34:14;;;;;;;27.00;11.88;;;-0.20;99.90;;;;;;4927522;29;20585;-80
2023/12/04 03:36:41;;;;;;;26.25;10.82;;;-0.20;99.90;;;;;;4918993;29;20173;-80
2023/12/04 03:39:07;;;;;;;29.92;11.93;;;-0.20;99.90;;;;;;4946152;29;20048;-80
2023/12/04 03:41:34;;;;;;;23.70;10.45;;;-0.20;99.90;;;;;;4933038;29;20123;-80
2023/12/04 03:44:00;;;;;;;25.58;11.30;;;-0.20;99.90;;;;;;4936434;29;20048;-80
2023/12/04 03:46:27;;;;;;;27.58;11.68;;;-0.20;99.90;;;;;;4922794;29;20180;-80
2023/12/04 03:48:55;;;;;;;27.52;12.25;;;-0.10;99.90;;;;;;4931241;29;20130;-80
2023/12/04 03:51:21;;;;;;;25.05;12.15;;;-0.10;99.90;;;;;;4942657;29;20414;-80
2023/12/04 03:53:48;;;;;;;29.50;11.77;;;-0.10;99.90;;;;;;4928023;29;20040;-80
2023/12/04 03:56:14;;;;;;;26.55;11.23;;;-0.10;99.90;;;;;;4930303;29;20051;-80
2023/12/04 03:58:41;;;;;;;25.73;12.18;;;-0.10;99.90;;;;;;4931328;29;20576;-80
2023/12/04 04:01:08;;;;;;;28.30;11.85;;;-0.10;99.90;;;;;;4944513;29;20414;-80
2023/12/04 04:03:34;;;;;;;27.38;12.05;;;1.10;99.90;;;;;;4924914;29;20044;-80
2023/12/04 04:06:01;;;;;;;30.23;12.15;;;-0.10;99.90;;;;;;4943318;29;20052;-80
2023/12/04 04:08:27;;;;;;;29.00;12.35;;;0.40;99.90;;;;;;4915484;29;20051;-80
2023/12/04 04:10:54;;;;;;;25.98;11.70;;;0.40;99.90;;;;;;4912584;29;20083;-80
2023/12/04 04:13:21;;;;;;;27.90;12.68;;;-0.10;99.90;;;;;;4921421;29;20072;-80
2023/12/04 04:15:47;;;;;;;25.83;11.82;;;-0.10;99.90;;;;;;4913273;29;20040;-80
2023/12/04 04:18:14;;;;;;;27.80;12.50;;;-0.10;99.90;;;;;;4945760;29;20051;-80
2023/12/04 04:20:40;;;;;;;31.40;11.85;;;0.40;99.90;;;;;;4915170;29;20049;-80
2023/12/04 04:23:07;;;;;;;25.42;11.52;;;-0.10;99.90;;;;;;4917108;29;20063;-80
2023/12/04 04:25:34;;;;;;;30.35;12.50;;;0.60;99.90;;;;;;4924470;29;20049;-80
2023/12/04 04:28:00;;;;;;;28.13;11.98;;;-0.10;99.90;;;;;;4902742;29;20544;-80
2023/12/04 04:30:27;;;;;;;25.90;11.55;;;-0.10;99.90;;;;;;4944412;29;20036;-80
2023/12/04 04:32:53;;;;;;;30.30;12.73;;;-0.10;99.90;;;;;;4922543;29;20051;-80
2023/12/04 04:35:20;;;;;;;30.02;12.45;;;-0.10;99.90;;;;;;4916989;29;20526;-80
2023/12/04 04:37:47;;;;;;;28.20;12.07;;;-0.10;99.90;;;;;;4915047;29;20048;-80
2023/12/04 04:40:13;;;;;;;29.05;12.07;;;-0.10;99.90;;;;;;4930019;29;20048;-80
2023/12/04 04:42:40;;;;;;;28.23;11.77;;;-0.10;99.90;;;;;;4930239;29;20049;-81
2023/12/04 04:45:07;;;;;;;26.83;12.10;;;-0.10;99.90;;;;;;4911870;29;20037;-80
2023/12/04 04:47:34;;;;;;;30.10;12.75;;;-0.10;99.90;;;;;;4919044;29;20036;-80
2023/12/04 04:50:00;;;;;;;27.88;12.35;;;-0.10;99.90;;;;;;4914231;29;20489;-80
2023/12/04 04:52:27;;;;;;;30.08;12.65;;;-0.10;99.90;;;;;;4928210;29;20045;-80
2023/12/04 04:54:54;;;;;;;31.95;12.45;;;-0.10;99.90;;;;;;4926815;29;20045;-80
2023/12/04 04:57:20;;;;;;;25.70;11.65;;;-0.10;99.90;;;;;;4909774;29;20044;-80
2023/12/04 04:59:47;;;;;;;25.58;12.00;;;-0.10;99.90;;;;;;4914497;29;20067;-80
2023/12/04 05:02:13;;;;;;;26.38;12.25;;;-0.10;99.90;;;;;;4941503;29;20040;-80
2023/12/04 05:04:40;;;;;;;29.40;11.45;;;-0.10;99.90;;;;;;4919973;29;20501;-80
2023/12/04 05:07:07;;;;;;;27.27;12.27;;;-0.10;99.90;;;;;;4930239;29;20045;-80
2023/12/04 05:09:33;;;;;;;28.85;12.20;;;0.00;99.90;;;;;;4906523;29;20044;-80
2023/12/04 05:12:00;;;;;;;27.90;12.32;;;0.00;99.90;;;;;;4926142;29;20044;-80
2023/12/04 05:14:27;;;;;;;30.63;11.98;;;-0.10;99.90;;;;;;4929843;29;20063;-80
2023/12/04 05:16:53;;;;;;;27.73;12.10;;;0.00;99.90;;;;;;4930397;29;20047;-80
2023/12/04 05:19:20;;;;;;;26.45;11.63;;;0.00;99.90;;;;;;4914469;29;20036;-81
2023/12/04 05:21:47;;;;;;;27.95;12.07;;;0.00;99.90;;;;;;4914927;29;20467;-80
2023/12/04 05:24:13;;;;;;;30.35;12.40;;;1.00;99.90;;;;;;4930045;29;20044;-80
2023/12/04 05:26:40;;;;;;;28.23;11.60;;;0.00;99.90;;;;;;4914204;29;20037;-80
2023/12/04 05:29:06;;;;;;;25.15;11.27;;;0.00;99.90;;;;;;4916574;29;20240;-80
2023/12/04 05:31:33;;;;;;;27.83;11.80;;;0.00;99.90;;;;;;4926665;29;20052;-80
2023/12/04 05:34:00;;;;;;;29.27;12.30;;;0.00;99.90;;;;;;4920024;29;20040;-80
2023/12/04 05:36:27;;;;;;;24.40;11.55;;;0.00;99.90;;;;;;4917854;29;20045;-80
2023/12/04 05:38:54;;;;;;;28.10;11.75;;;0.00;99.90;;;;;;4917503;29;20434;-80
2023/12/04 05:41:20;;;;;;;25.05;11.95;;;0.00;99.90;;;;;;4924630;29;20040;-80
2023/12/04 05:43:47;;;;;;;27.90;11.90;;;-0.10;99.90;;;;;;4927691;29;20430;-81
2023/12/04 05:46:14;;;;;;;28.42;11.90;;;-0.10;99.90;;;;;;4933379;29;20040;-82
2023/12/04 05:48:40;;;;;;;26.50;12.48;;;-0.20;99.90;;;;;;4944443;29;20036;-81
2023/12/04 05:51:07;;;;;;;27.75;12.18;;;-0.10;99.90;;;;;;4925240;29;20068;-81
2023/12/04 05:53:34;;;;;;;28.08;11.63;;;-0.10;99.90;;;;;;4914439;29;20123;-81
2023/12/04 05:56:00;;;;;;;25.73;11.50;;;-0.10;99.90;;;;;;4909842;29;20036;-81
2023/12/04 05:58:27;;;;;;;25.27;11.77;;;-0.10;99.90;;;;;;4945706;29;20053;-81
2023/12/04 06:00:53;;;;;;;28.00;12.38;;;-0.10;99.90;;;;;;4929145;29;20135;-82
2023/12/04 06:03:20;;;;;;;27.33;12.02;;;-0.10;99.90;;;;;;4920680;29;20506;-81
2023/12/04 06:05:47;;;;;;;26.08;11.63;;;0.00;99.90;;;;;;4914353;29;20057;-82
2023/12/04 06:08:13;;;;;;;29.10;12.23;;;0.00;99.90;;;;;;4929617;29;20055;-81
2023/12/04 06:10:40;;;;;;;27.65;11.88;;;0.00;99.90;;;;;;4913927;29;20041;-82
2023/12/04 06:13:07;;;;;;;25.25;11.52;;;0.00;99.90;;;;;;4936029;29;20040;-81
2023/12/04 06:15:34;;;;;;;28.05;12.77;;;0.00;99.90;;;;;;4921228;29;20486;-81
2023/12/04 06:18:00;;;;;;;25.50;11.65;;;0.00;99.90;;;;;;4929326;29;20044;-81
2023/12/04 06:20:27;;;;;;;25.75;11.00;;;0.00;99.90;;;;;;4901926;29;20079;-82
2023/12/04 06:22:54;;;;;;;24.95;11.80;;;0.00;99.90;;;;;;4917274;29;20059;-81
2023/12/04 06:25:21;;;;;;;28.13;12.85;;;0.00;99.90;;;;;;4908705;29;20037;-81
2023/12/04 06:27:48;;;;;;;29.08;12.10;;;0.00;99.90;;;;;;4919419;29;20063;-81
2023/12/04 06:30:15;;;;;;;27.42;11.75;;;0.00;99.90;;;;;;4925002;29;20033;-81
2023/12/04 06:32:42;;;;;;;27.95;12.27;;;0.00;99.90;;;;;;4922287;29;20413;-81
2023/12/04 06:35:10;;;;;;;29.80;12.20;;;0.00;99.90;;;;;;4935991;29;20040;-81
2023/12/04 06:37:39;;;;;;;25.40;11.77;;;0.00;99.90;;;;;;4899617;29;20041;-81
2023/12/04 06:40:08;;;;;;;25.38;11.38;;;0.00;99.90;;;;;;4926166;29;20136;-81
2023/12/04 06:42:35;;;;;;;29.92;12.05;;;0.10;99.90;;;;;;4917136;29;20044;-81
2023/12/04 06:45:02;;;;;;;27.20;11.57;;;0.10;99.90;;;;;;4932465;29;20087;-82
2023/12/04 06:47:31;;;;;;;26.60;11.57;;;0.10;99.90;;;;;;4916826;29;20047;-82
2023/12/04 06:49:58;;;;;;;28.50;11.50;;;0.10;99.90;;;;;;4917702;29;20123;-82
2023/12/04 06:52:25;;;;;;;28.67;11.57;;;0.00;99.90;;;;;;4931214;29;20181;-81
2023/12/04 06:54:51;;;;;;;26.52;11.60;;;0.10;99.90;;;;;;4914938;29;20131;-81
2023/12/04 06:57:18;;;;;;;26.45;11.88;;;0.10;99.90;;;;;;4919234;29;20116;-82
2023/12/04 06:59:44;;;;;;;25.33;11.55;;;0.10;99.90;;;;;;4928316;29;20052;-81
2023/12/04 07:02:11;;;;;;;27.10;11.23;;;0.10;99.90;;;;;;4929468;29;20052;-81
2023/12/04 07:04:38;;;;;;;27.92;12.00;;;0.10;99.90;;;;;;4933823;29;20040;-81
2023/12/04 07:07:05;;;;;;;27.88;11.85;;;0.10;99.90;;;;;;4927517;29;20059;-82
2023/12/04 07:09:32;;;;;;;30.05;11.63;;;0.10;99.90;;;;;;4919922;29;20056;-81
2023/12/04 07:11:59;;;;;;;29.77;12.32;;;0.10;99.90;;;;;;4929370;29;20036;-81
2023/12/04 07:14:26;;;;;;;25.60;11.18;;;0.10;99.90;;;;;;4926317;29;20039;-81
2023/12/04 07:16:52;;;;;;;27.52;11.55;;;0.20;99.90;;;;;;4919138;29;20032;-82
2023/12/04 07:19:19;;;;;;;24.42;11.30;;;0.10;99.90;;;;;;4929747;29;20096;-81
2023/12/04 07:21:46;;;;;;;23.30;10.65;;;0.20;99.90;;;;;;4931721;29;20044;-81
2023/12/04 07:24:13;;;;;;;23.80;10.93;;;0.40;99.90;;;;;;4907598;29;20040;-82
2023/12/04 07:26:39;;;;;;;24.17;11.23;;;0.20;99.90;;;;;;4934167;29;20500;-82
2023/12/04 07:29:06;;;;;;;26.23;11.32;;;0.20;99.90;;;;;;4923311;29;20045;-82
2023/12/04 07:31:33;;;;;;;23.63;9.85;;;0.20;99.90;;;;;;4936324;29;20159;-81
2023/12/04 07:34:01;;;;;;;24.98;10.18;;;0.70;99.90;;;;;;4918963;29;20538;-82
2023/12/04 07:36:28;;;;;;;24.52;11.25;;;-0.10;99.90;;;;;;4915692;29;20033;-81
2023/12/04 07:38:55;;;;;;;21.23;10.23;;;0.20;99.90;;;;;;4930973;29;20123;-82
2023/12/04 07:41:22;;;;;;;25.90;10.40;;;0.10;99.90;;;;;;4931024;29;20611;-81
2023/12/04 07:43:48;;;;;;;28.23;11.43;;;0.10;99.90;;;;;;4931227;29;20127;-82
2023/12/04 07:46:15;;;;;;;29.42;10.20;;;0.10;99.90;;;;;;4915291;29;20207;-81
2023/12/04 07:48:43;;;;;;;24.08;10.52;;;0.10;99.90;;;;;;4946579;29;20083;-82
2023/12/04 07:51:10;;;;;;;23.40;10.20;;;0.10;99.90;;;;;;4931802;29;20043;-81
2023/12/04 07:53:37;;;;;;;22.92;10.50;;;0.10;99.90;;;;;;4924072;29;20032;-82
2023/12/04 07:56:04;;;;;;;21.17;10.18;;;0.10;99.90;;;;;;4931147;29;20048;-81
2023/12/04 07:58:31;;;;;;;18.98;9.43;;;0.10;99.90;;;;;;4916428;29;20108;-81
2023/12/04 08:00:59;;;;;;;24.85;10.15;;;0.10;99.90;;;;;;4936773;29;20064;-82
2023/12/04 08:03:25;;;;;;;21.23;10.32;;;0.10;99.90;;;;;;4915122;29;20044;-81
2023/12/04 08:05:52;;;;;;;18.88;8.98;;;0.10;99.90;;;;;;4931263;29;20059;-82
2023/12/04 08:08:19;;;;;;;23.55;10.10;;;0.30;99.90;;;;;;4930121;29;20052;-82
2023/12/04 08:10:45;;;;;;;22.58;9.88;;;0.20;99.90;;;;;;4927056;29;20501;-82
2023/12/04 08:13:12;;;;;;;21.45;9.80;;;0.20;99.90;;;;;;4915043;29;20042;-82
2023/12/04 08:15:39;;;;;;;20.65;9.43;;;0.20;99.90;;;;;;4916642;29;20100;-82
2023/12/04 08:18:05;;;;;;;20.92;9.93;;;0.20;99.90;;;;;;4931164;29;20099;-82
2023/12/04 08:20:32;;;;;;;19.52;8.95;;;0.20;99.90;;;;;;4933297;29;20079;-82
2023/12/04 08:22:59;;;;;;;21.85;8.80;;;1.40;99.90;;;;;;4937262;29;20103;-81
2023/12/04 08:25:26;;;;;;;20.13;9.05;;;0.30;99.90;;;;;;4923207;29;20043;-80
2023/12/04 08:27:53;;;;;;;22.95;9.77;;;0.20;99.90;;;;;;4931420;29;20409;-80
2023/12/04 08:30:19;;;;;;;20.90;9.45;;;0.30;99.90;;;;;;4930609;29;20040;-81
2023/12/04 08:32:47;;;;;;;21.25;9.38;;;0.30;99.90;;;;;;4925186;29;20486;-81
2023/12/04 08:35:13;;;;;;;22.58;10.23;;;0.30;99.90;;;;;;4910995;29;20048;-81
2023/12/04 08:37:40;;;;;;;20.70;9.45;;;0.90;99.90;;;;;;4913860;29;20490;-81
2023/12/04 08:40:08;;;;;;;21.25;8.52;;;0.30;99.90;;;;;;4942815;29;20043;-81
2023/12/04 08:42:35;;;;;;;22.45;9.77;;;0.30;99.90;;;;;;4914819;29;20052;-81
2023/12/04 08:45:01;;;;;;;19.83;8.98;;;0.30;99.90;;;;;;4930452;29;20052;-81
2023/12/04 08:47:28;;;;;;;17.67;8.50;;;0.30;99.90;;;;;;4930929;29;20120;-81
2023/12/04 08:49:54;;;;;;;17.83;8.48;;;0.30;99.90;;;;;;4931412;29;20112;-80
2023/12/04 08:52:21;;;;;;;18.48;8.90;;;0.30;99.90;;;;;;4912167;29;20100;-81
2023/12/04 08:54:48;;;;;;;19.17;8.55;;;0.40;99.90;;;;;;4922279;29;20128;-81
2023/12/04 08:57:14;;;;;;;18.42;8.45;;;0.30;99.90;;;;;;4943531;29;20036;-80
2023/12/04 08:59:41;;;;;;;16.10;8.07;;;0.40;99.90;;;;;;4912922;29;20044;-80
2023/12/04 09:02:08;;;;;;;17.25;8.00;;;0.30;99.90;;;;;;4949306;29;20048;-81
2023/12/04 09:04:34;;;;;;;17.00;8.63;;;0.40;99.90;;;;;;4930783;29;20096;-80
2023/12/04 09:07:01;;;;;;;17.63;8.77;;;0.40;99.90;;;;;;4918503;29;20449;-80
2023/12/04 09:09:28;;;;;;;17.88;8.27;;;0.40;99.90;;;;;;4920192;29;20127;-80
2023/12/04 09:11:54;;;;;;;17.13;8.25;;;0.40;99.90;;;;;;4948852;29;20449;-80
2023/12/04 09:14:21;;;;;;;18.77;8.65;;;0.40;99.90;;;;;;4918171;29;20049;-80
2023/12/04 09:16:48;;;;;;;17.17;8.30;;;0.40;99.90;;;;;;4918043;29;20041;-80
2023/12/04 09:19:14;;;;;;;17.88;8.20;;;0.40;99.90;;;;;;4917764;29;20041;-80
2023/12/04 09:21:42;;;;;;;18.08;7.95;;;1.10;99.90;;;;;;4933831;29;20055;-80
2023/12/04 09:24:09;;;;;;;15.05;7.88;;;0.50;99.90;;;;;;4946171;29;20048;-80
2023/12/04 09:26:35;;;;;;;17.30;7.90;;;0.40;99.90;;;;;;4912575;29;20462;-80
2023/12/04 09:29:02;;;;;;;17.20;8.43;;;0.50;99.90;;;;;;4918185;29;20255;-79
2023/12/04 09:31:29;;;;;;;17.45;8.05;;;0.50;99.90;;;;;;4926589;29;20183;-80
2023/12/04 09:33:55;;;;;;;19.17;9.18;;;0.50;99.90;;;;;;4951133;29;20039;-80
2023/12/04 09:36:22;;;;;;;17.60;8.20;;;0.50;99.90;;;;;;4946131;29;20506;-80
2023/12/04 09:38:49;;;;;;;18.45;7.85;;;0.50;99.90;;;;;;4921467;29;20048;-80
2023/12/04 09:41:16;;;;;;;17.20;8.25;;;1.60;99.90;;;;;;4933719;29;20084;-80
2023/12/04 09:43:44;;;;;;;17.20;8.32;;;0.60;99.90;;;;;;4921171;29;20044;-79
2023/12/04 09:46:11;;;;;;;15.88;8.00;;;0.60;99.90;;;;;;4942291;29;20051;-80
2023/12/04 09:48:40;;;;;;;15.25;7.70;;;0.60;99.90;;;;;;4933556;29;20052;-80
2023/12/04 09:51:08;;;;;;;19.05;8.77;;;0.70;99.90;;;;;;4933299;29;20096;-80
2023/12/04 09:53:35;;;;;;;16.13;7.45;;;0.70;99.90;;;;;;4917503;29;20058;-80
2023/12/04 09:56:03;;;;;;;16.65;7.60;;;0.70;99.90;;;;;;4933363;29;20045;-79
2023/12/04 09:58:32;;;;;;;16.17;8.10;;;0.70;99.90;;;;;;4921838;29;20135;-80
2023/12/04 10:01:02;;;;;;;15.65;7.78;;;0.80;99.90;;;;;;4909253;29;20096;-80
2023/12/04 10:03:29;;;;;;;16.77;8.02;;;0.80;99.90;;;;;;4928249;29;20047;-79
2023/12/04 10:05:56;;;;;;;14.88;7.25;;;0.80;99.90;;;;;;4944515;29;20123;-79
2023/12/04 10:08:23;;;;;;;19.05;8.77;;;0.80;99.90;;;;;;4923152;29;20044;-80
2023/12/04 10:10:50;;;;;;;16.95;8.32;;;0.80;99.90;;;;;;4932798;29;20072;-80
2023/12/04 10:13:16;;;;;;;17.00;7.88;;;0.80;99.90;;;;;;4932925;29;20090;-80
2023/12/04 10:15:51;;;;;;;15.68;7.90;;;0.90;99.90;;;;;;4936462;29;20047;-80
2023/12/04 10:18:31;;;;;;;17.35;8.30;;;0.90;99.90;;;;;;4928409;29;20494;-80
2023/12/04 10:20:59;;;;;;;15.00;7.07;;;0.90;99.90;;;;;;4920606;29;20051;-79
2023/12/04 10:23:36;;;;;;;14.05;7.47;;;0.90;99.90;;;;;;4926652;29;20052;-80
2023/12/04 10:26:04;;;;;;;17.75;7.68;;;0.90;99.90;;;;;;4904481;29;20109;-80
2023/12/04 10:28:30;;;;;;;13.68;7.03;;;1.00;99.90;;;;;;4905985;29;20045;-80
2023/12/04 10:30:57;;;;;;;14.77;7.22;;;1.00;99.90;;;;;;4923831;29;20117;-79
2023/12/04 10:33:28;;;;;;;16.33;7.95;;;1.00;99.90;;;;;;4935639;29;20044;-80
2023/12/04 10:35:55;;;;;;;15.05;7.78;;;1.10;99.90;;;;;;4916110;29;20044;-80
2023/12/04 10:38:22;;;;;;;15.15;7.70;;;1.80;99.90;;;;;;4931900;29;20466;-80
2023/12/04 10:40:49;;;;;;;14.23;7.65;;;1.10;99.90;;;;;;4926598;29;20040;-80
2023/12/04 10:43:21;;;;;;;14.27;7.40;;;1.10;99.90;;;;;;4924109;29;20565;-80
2023/12/04 10:45:48;;;;;;;15.05;6.97;;;1.10;99.90;;;;;;4932107;29;20502;-80
2023/12/04 10:48:16;;;;;;;14.27;6.90;;;1.20;99.90;;;;;;4932092;29;20169;-80
2023/12/04 10:50:46;;;;;;;14.43;6.63;;;1.60;99.90;;;;;;4916423;29;20040;-80
2023/12/04 10:53:14;;;;;;;15.15;6.72;;;1.20;99.90;;;;;;4932098;29;20071;-80
2023/12/04 10:55:42;;;;;;;11.80;6.10;;;1.30;99.90;;;;;;4923181;29;20092;-79
2023/12/04 10:58:11;;;;;;;12.98;6.78;;;1.20;99.90;;;;;;4932206;29;20040;-80
2023/12/04 11:00:48;;;;;;;14.63;7.15;;;1.20;99.90;;;;;;4931334;29;20108;-80
2023/12/04 11:03:28;;;;;;;14.63;6.75;;;1.20;99.90;;;;;;4930584;29;20516;-80
2023/12/04 11:05:59;;;;;;;12.60;6.03;;;2.00;99.90;;;;;;4938429;29;20068;-80
2023/12/04 11:08:33;;;;;;;12.70;6.65;;;1.20;99.90;;;;;;4921714;29;20040;-80
2023/12/04 11:11:03;;;;;;;13.65;6.70;;;1.20;99.90;;;;;;4939568;29;20052;-80
2023/12/04 11:13:32;;;;;;;15.40;6.97;;;1.20;99.90;;;;;;4914760;29;20090;-80
2023/12/04 11:16:26;;;;;;;15.00;7.43;;;1.20;99.90;;;;;;4910777;29;20044;-80
2023/12/04 11:19:01;;;;;;;12.80;6.70;;;1.30;99.90;;;;;;4931561;29;20036;-80
2023/12/04 11:21:29;;;;;;;14.40;6.65;;;1.30;99.90;;;;;;4925085;29;20052;-80
2023/12/04 11:23:58;;;;;;;13.30;6.63;;;1.30;99.90;;;;;;4931592;29;20049;-80
2023/12/04 11:26:25;;;;;;;14.55;7.03;;;1.30;99.90;;;;;;4931123;29;20040;-80
2023/12/04 11:28:53;;;;;;;12.50;6.22;;;1.30;99.90;;;;;;4912052;29;20502;-80
2023/12/04 11:31:20;;;;;;;14.00;6.65;;;1.40;99.90;;;;;;4941448;29;20032;-80
2023/12/04 11:33:47;;;;;;;11.50;6.00;;;1.40;99.90;;;;;;4916984;29;20047;-81
2023/12/04 11:36:14;;;;;;;12.30;6.18;;;1.40;99.90;;;;;;4915654;29;20037;-80
2023/12/04 11:38:48;;;;;;;13.70;7.20;;;1.40;99.90;;;;;;4931004;29;20502;-80
2023/12/04 11:41:22;;;;;;;13.57;6.50;;;1.40;99.90;;;;;;4924837;29;20088;-80
2023/12/04 11:43:49;;;;;;;13.85;6.55;;;1.40;99.90;;;;;;4937653;29;20048;-80
2023/12/04 11:46:23;;;;;;;14.00;7.30;;;1.50;99.90;;;;;;4935200;29;20044;-80
2023/12/04 11:48:53;;;;;;;13.95;7.85;;;1.50;99.90;;;;;;4930845;29;20497;-80
2023/12/04 11:51:38;;;;;;;13.80;7.10;;;1.50;99.90;;;;;;4915347;29;20119;-81
2023/12/04 11:54:09;;;;;;;13.75;6.75;;;1.50;99.90;;;;;;4908801;29;20124;-80
2023/12/04 11:56:36;;;;;;;14.65;7.30;;;1.50;99.90;;;;;;4940108;29;20044;-80
2023/12/04 11:59:04;;;;;;;11.60;5.93;;;1.50;99.90;;;;;;4911166;29;20051;-80
2023/12/04 12:01:36;;;;;;;12.23;6.50;;;1.50;99.90;;;;;;4920342;29;20131;-81
2023/12/04 12:04:06;;;;;;;13.73;6.63;;;1.50;99.90;;;;;;4925099;29;20052;-81
2023/12/04 12:06:33;;;;;;;12.75;6.70;;;1.50;99.90;;;;;;4926684;29;20086;-81
2023/12/04 12:09:00;;;;;;;13.55;6.20;;;1.50;99.90;;;;;;4930622;29;20048;-80
2023/12/04 12:11:27;;;;;;;14.02;7.55;;;1.50;99.90;;;;;;4911196;29;20047;-84
2023/12/04 12:13:54;;;;;;;12.63;6.47;;;1.50;99.90;;;;;;4906383;29;20557;-84
2023/12/04 12:16:20;;;;;;;14.60;7.35;;;1.50;99.90;;;;;;4933365;29;20091;-84
2023/12/04 12:18:47;;;;;;;12.70;6.78;;;1.50;99.90;;;;;;4939525;29;20068;-84
2023/12/04 12:21:14;;;;;;;14.10;6.65;;;1.60;99.90;;;;;;4941292;29;20112;-84
2023/12/04 12:23:41;;;;;;;13.50;6.65;;;1.60;99.90;;;;;;4908605;29;20053;-84
2023/12/04 12:26:08;;;;;;;13.10;6.50;;;1.60;99.90;;;;;;4930255;29;20494;-83
2023/12/04 12:28:35;;;;;;;13.27;6.40;;;1.60;99.90;;;;;;4912061;29;20077;-84
2023/12/04 12:31:05;;;;;;;14.05;7.40;;;1.60;99.90;;;;;;4927701;29;20048;-84
2023/12/04 12:33:32;;;;;;;12.85;6.60;;;1.60;99.90;;;;;;4930046;29;20041;-84
2023/12/04 12:35:59;;;;;;;20.25;7.03;;;1.60;99.90;;;;;;4932872;29;20442;-84